Time;durP1;ratioP1;P1;durP2;ratioP2;P2;SDS_P1;SDS_P2;PMS_P1;PMS_P2;Temp;Humidity;BMP_temperature;BMP_pressure;BME280_temperature;BME280_humidity;BME280_pressure;Samples;Min_cycle;Max_cycle;Signal;HPM_P1;HPM_P2
2023/08/29 00:01:32;;;;;;;5.35;3.33;;;14.10;99.90;;;;;;5095301;28;20055;-63
2023/08/29 00:03:59;;;;;;;5.93;3.78;;;14.00;99.90;;;;;;5095625;28;20044;-63
2023/08/29 00:06:26;;;;;;;4.57;3.45;;;14.00;99.90;;;;;;5077771;28;20056;-62
2023/08/29 00:08:53;;;;;;;4.47;3.47;;;14.10;99.90;;;;;;5077588;28;20051;-62
2023/08/29 00:11:21;;;;;;;4.72;3.53;;;14.00;99.90;;;;;;5077525;28;20047;-62
2023/08/29 00:13:47;;;;;;;6.22;4.07;;;14.00;99.90;;;;;;5077581;28;20044;-62
2023/08/29 00:16:16;;;;;;;6.22;3.45;;;14.00;99.90;;;;;;5077598;28;20059;-62
2023/08/29 00:18:43;;;;;;;5.45;3.50;;;14.00;99.90;;;;;;5077208;28;20056;-62
2023/08/29 00:21:09;;;;;;;5.45;4.10;;;14.00;99.90;;;;;;5077799;28;20176;-61
2023/08/29 00:23:36;;;;;;;5.45;3.63;;;14.00;99.90;;;;;;5095218;28;20475;-62
2023/08/29 00:26:03;;;;;;;7.85;4.18;;;14.00;99.90;;;;;;5094531;28;20088;-62
2023/08/29 00:29:01;;;;;;;6.03;3.85;;;14.00;99.90;;;;;;5077017;28;20377;-61
2023/08/29 00:31:28;;;;;;;4.72;3.72;;;14.00;99.90;;;;;;5095114;28;20040;-62
2023/08/29 00:33:55;;;;;;;7.07;4.70;;;14.00;99.90;;;;;;5095592;28;20054;-62
2023/08/29 00:36:23;;;;;;;7.20;4.03;;;13.90;99.90;;;;;;5077464;28;20078;-61
2023/08/29 00:38:49;;;;;;;6.00;4.15;;;14.00;99.90;;;;;;5076711;28;20048;-63
2023/08/29 00:41:17;;;;;;;5.93;4.25;;;13.90;99.90;;;;;;5094623;28;20367;-62
2023/08/29 00:43:43;;;;;;;5.35;4.55;;;13.90;99.90;;;;;;5095195;28;20363;-62
2023/08/29 00:46:09;;;;;;;8.35;4.97;;;13.90;99.90;;;;;;5095246;28;20441;-61
2023/08/29 00:48:36;;;;;;;8.40;4.90;;;13.80;99.90;;;;;;5095012;28;20063;-62
2023/08/29 00:51:03;;;;;;;6.32;4.40;;;13.80;99.90;;;;;;5094748;28;20125;-62
2023/08/29 00:53:31;;;;;;;6.55;4.65;;;13.70;99.90;;;;;;5094923;28;20051;-62
2023/08/29 00:55:58;;;;;;;7.32;5.03;;;13.70;99.90;;;;;;5094481;28;20362;-62
2023/08/29 00:58:24;;;;;;;5.72;4.32;;;13.70;99.90;;;;;;5094580;28;20065;-62
2023/08/29 01:00:51;;;;;;;10.05;4.55;;;13.70;99.90;;;;;;5094906;28;20341;-62
2023/08/29 01:03:17;;;;;;;5.30;4.10;;;13.60;99.90;;;;;;5094465;28;20059;-61
2023/08/29 01:05:43;;;;;;;6.18;4.82;;;13.70;99.90;;;;;;5094368;28;20056;-62
2023/08/29 01:08:10;;;;;;;7.28;4.50;;;13.60;99.90;;;;;;5094140;28;20044;-62
2023/08/29 01:10:55;;;;;;;5.13;4.05;;;13.60;99.90;;;;;;5094104;28;20078;-61
2023/08/29 01:13:29;;;;;;;4.85;3.88;;;13.60;99.90;;;;;;5078856;28;20109;-62
2023/08/29 01:15:58;;;;;;;5.13;3.65;;;13.60;99.90;;;;;;5076399;28;20064;-62
2023/08/29 01:18:27;;;;;;;7.00;4.55;;;13.60;99.90;;;;;;5093692;28;20051;-62
2023/08/29 01:21:02;;;;;;;5.80;4.22;;;13.40;99.90;;;;;;5094364;28;20514;-62
2023/08/29 01:23:40;;;;;;;6.25;4.05;;;13.50;99.90;;;;;;5076347;28;20044;-62
2023/08/29 01:26:13;;;;;;;5.32;3.97;;;13.50;99.90;;;;;;5076619;28;20432;-62
2023/08/29 01:28:43;;;;;;;8.07;4.30;;;13.50;99.90;;;;;;5093900;28;20040;-62
2023/08/29 01:31:11;;;;;;;6.82;4.20;;;13.50;99.90;;;;;;5075859;28;20079;-61
2023/08/29 01:33:38;;;;;;;5.22;3.90;;;13.40;99.90;;;;;;5094098;28;20368;-61
2023/08/29 01:36:05;;;;;;;5.28;4.00;;;13.50;99.90;;;;;;5094003;28;20105;-62
2023/08/29 01:38:31;;;;;;;5.97;4.22;;;13.40;99.90;;;;;;5093608;28;20056;-63
2023/08/29 01:40:58;;;;;;;6.28;4.15;;;13.30;99.90;;;;;;5093400;28;20152;-63
2023/08/29 01:43:24;;;;;;;6.25;3.80;;;13.30;99.90;;;;;;5093972;28;20044;-62
2023/08/29 01:45:52;;;;;;;8.88;4.30;;;13.30;99.90;;;;;;5093784;28;20052;-62
2023/08/29 01:48:18;;;;;;;6.50;4.13;;;13.30;99.90;;;;;;5093503;28;20105;-62
2023/08/29 01:50:47;;;;;;;5.30;3.92;;;13.20;99.90;;;;;;5075376;28;20059;-62
2023/08/29 01:53:14;;;;;;;6.55;3.63;;;13.30;99.90;;;;;;5093560;28;20083;-62
2023/08/29 01:55:42;;;;;;;5.35;3.35;;;13.20;99.90;;;;;;5093646;28;20052;-62
2023/08/29 01:58:42;;;;;;;5.38;3.83;;;13.20;99.90;;;;;;5075645;28;20259;-62
2023/08/29 02:01:08;;;;;;;5.93;4.07;;;13.20;99.90;;;;;;5093613;28;20367;-62
2023/08/29 02:03:34;;;;;;;5.47;3.15;;;13.20;99.90;;;;;;5075215;28;20063;-62
2023/08/29 02:06:01;;;;;;;4.95;3.45;;;13.10;99.90;;;;;;5093249;28;20052;-62
2023/08/29 02:08:27;;;;;;;6.80;3.72;;;13.20;99.90;;;;;;5093424;28;20117;-63
2023/08/29 02:10:53;;;;;;;6.53;3.72;;;13.10;99.90;;;;;;5075438;28;20062;-62
2023/08/29 02:13:20;;;;;;;6.03;3.47;;;13.10;99.90;;;;;;5093274;28;20063;-62
2023/08/29 02:15:46;;;;;;;4.82;3.30;;;13.20;99.90;;;;;;5093156;28;20056;-62
2023/08/29 02:18:13;;;;;;;5.60;3.45;;;13.20;99.90;;;;;;5092895;28;20058;-62
2023/08/29 02:20:40;;;;;;;5.78;3.70;;;13.10;99.90;;;;;;5093047;28;20375;-62
2023/08/29 02:23:06;;;;;;;6.65;3.58;;;13.10;99.90;;;;;;5093112;28;20051;-61
2023/08/29 02:25:33;;;;;;;5.65;3.83;;;13.10;99.90;;;;;;5093249;28;20105;-62
2023/08/29 02:27:59;;;;;;;5.50;3.50;;;13.10;99.90;;;;;;5092856;28;20047;-61
2023/08/29 02:30:26;;;;;;;5.38;3.40;;;13.10;99.90;;;;;;5092968;28;20413;-62
2023/08/29 02:32:52;;;;;;;5.63;3.95;;;13.10;99.90;;;;;;5092902;28;20514;-62
2023/08/29 02:35:19;;;;;;;6.72;4.00;;;13.10;99.90;;;;;;5092968;28;20048;-62
2023/08/29 02:37:45;;;;;;;5.90;3.60;;;13.00;99.90;;;;;;5092774;28;20059;-62
2023/08/29 02:40:12;;;;;;;6.80;3.83;;;13.00;99.90;;;;;;5092971;28;20052;-62
2023/08/29 02:42:38;;;;;;;5.35;3.78;;;13.00;99.90;;;;;;5092122;28;20048;-62
2023/08/29 02:45:04;;;;;;;5.22;3.40;;;12.90;99.90;;;;;;5092514;28;20048;-62
2023/08/29 02:47:31;;;;;;;5.18;3.55;;;12.90;99.90;;;;;;5092796;28;20127;-61
2023/08/29 02:49:57;;;;;;;6.55;3.80;;;12.90;99.90;;;;;;5092095;28;20044;-63
2023/08/29 02:52:24;;;;;;;5.28;4.18;;;12.80;99.90;;;;;;5092585;28;20252;-62
2023/08/29 02:54:50;;;;;;;5.15;3.83;;;12.80;99.90;;;;;;5092854;28;20058;-62
2023/08/29 02:57:17;;;;;;;7.22;4.05;;;12.80;99.90;;;;;;5092562;28;20213;-62
2023/08/29 02:59:46;;;;;;;5.50;3.47;;;12.80;99.90;;;;;;5074422;28;20052;-63
2023/08/29 03:02:14;;;;;;;8.00;3.63;;;12.80;99.90;;;;;;5074537;28;20073;-62
2023/08/29 03:04:42;;;;;;;4.63;3.65;;;12.80;99.90;;;;;;5074770;28;20487;-61
2023/08/29 03:07:08;;;;;;;6.15;3.90;;;12.70;99.90;;;;;;5058131;28;20048;-62
2023/08/29 03:09:34;;;;;;;4.95;3.53;;;12.70;99.90;;;;;;5092329;28;20052;-62
2023/08/29 03:12:01;;;;;;;4.85;3.53;;;12.70;99.90;;;;;;5092533;28;20054;-62
2023/08/29 03:14:28;;;;;;;6.70;3.67;;;12.60;99.90;;;;;;5092663;28;20043;-62
2023/08/29 03:16:54;;;;;;;5.85;3.90;;;12.60;99.90;;;;;;5092117;28;20048;-62
2023/08/29 03:19:20;;;;;;;5.93;3.97;;;12.60;99.90;;;;;;5092488;28;20040;-62
2023/08/29 03:21:47;;;;;;;6.18;3.80;;;12.50;99.90;;;;;;5092484;28;20102;-62
2023/08/29 03:24:13;;;;;;;4.95;3.63;;;12.50;99.90;;;;;;5074865;28;20050;-62
2023/08/29 03:26:40;;;;;;;7.03;3.58;;;12.40;99.90;;;;;;5092970;28;20048;-63
2023/08/29 03:29:06;;;;;;;6.68;3.75;;;12.40;99.90;;;;;;5092453;28;20051;-62
2023/08/29 03:31:32;;;;;;;4.65;3.47;;;12.40;99.90;;;;;;5092271;28;20498;-62
2023/08/29 03:33:58;;;;;;;7.40;3.92;;;12.40;99.90;;;;;;5092527;28;20390;-62
2023/08/29 03:36:25;;;;;;;5.90;4.03;;;12.40;99.90;;;;;;5092458;28;20051;-63
2023/08/29 03:38:51;;;;;;;5.50;3.72;;;12.40;99.90;;;;;;5074446;28;20048;-62
2023/08/29 03:41:17;;;;;;;4.95;3.50;;;12.30;99.90;;;;;;5091602;28;20121;-62
2023/08/29 03:43:43;;;;;;;5.40;3.33;;;12.20;99.90;;;;;;5092061;28;20044;-64
2023/08/29 03:46:28;;;;;;;6.60;3.90;;;12.30;99.90;;;;;;5092290;28;20052;-61
2023/08/29 03:48:54;;;;;;;5.15;3.55;;;12.30;99.90;;;;;;5092134;28;20055;-62
2023/08/29 03:51:20;;;;;;;5.07;3.70;;;12.30;99.90;;;;;;5092148;28;20052;-62
2023/08/29 03:53:48;;;;;;;7.55;3.95;;;12.30;99.90;;;;;;5074022;28;20056;-62
2023/08/29 03:56:16;;;;;;;6.47;3.95;;;12.20;99.90;;;;;;5074052;28;20048;-63
2023/08/29 03:58:43;;;;;;;5.03;3.28;;;12.20;99.90;;;;;;5091924;28;20059;-62
2023/08/29 04:01:11;;;;;;;4.70;3.80;;;12.20;99.90;;;;;;5093220;28;20060;-63
2023/08/29 04:03:37;;;;;;;7.35;4.07;;;12.20;99.90;;;;;;5061064;28;20399;-62
2023/08/29 04:06:04;;;;;;;5.00;3.80;;;12.20;99.90;;;;;;5077723;28;20456;-62
2023/08/29 04:08:30;;;;;;;5.00;3.85;;;12.20;99.90;;;;;;5095483;28;20054;-62
2023/08/29 04:10:56;;;;;;;6.40;3.78;;;12.20;99.90;;;;;;5095342;28;20390;-63
2023/08/29 04:13:23;;;;;;;7.85;4.20;;;12.10;99.90;;;;;;5095608;28;20048;-61
2023/08/29 04:15:50;;;;;;;8.52;4.47;;;12.10;99.90;;;;;;5095423;28;20056;-62
2023/08/29 04:18:16;;;;;;;6.53;4.30;;;12.20;99.90;;;;;;5095378;28;20064;-61
2023/08/29 04:20:46;;;;;;;7.15;4.13;;;12.10;99.90;;;;;;5095429;28;20123;-62
2023/08/29 04:23:12;;;;;;;6.97;4.55;;;12.10;99.90;;;;;;5077243;28;20040;-63
2023/08/29 04:25:39;;;;;;;5.60;4.07;;;12.20;99.90;;;;;;5095592;28;20040;-62
2023/08/29 04:28:05;;;;;;;7.80;4.07;;;12.10;99.90;;;;;;5094937;28;20105;-61
2023/08/29 04:30:32;;;;;;;5.80;3.97;;;12.10;99.90;;;;;;5076724;28;20338;-61
2023/08/29 04:33:01;;;;;;;6.72;4.68;;;12.00;99.90;;;;;;5094788;28;20084;-62
2023/08/29 04:35:27;;;;;;;5.78;4.00;;;12.10;99.90;;;;;;5077505;28;20087;-61
2023/08/29 04:37:54;;;;;;;6.82;3.90;;;12.00;99.90;;;;;;5095002;28;20116;-61
2023/08/29 04:40:21;;;;;;;6.70;3.88;;;12.10;99.90;;;;;;5077329;28;20052;-62
2023/08/29 04:42:50;;;;;;;6.00;3.58;;;12.00;99.90;;;;;;5077230;28;20109;-62
2023/08/29 04:45:16;;;;;;;5.60;3.80;;;12.00;99.90;;;;;;5094342;28;20051;-62
2023/08/29 04:47:44;;;;;;;4.93;3.58;;;12.00;99.90;;;;;;5076391;28;20055;-61
2023/08/29 04:50:10;;;;;;;5.88;3.58;;;11.90;99.90;;;;;;5076549;28;20055;-61
2023/08/29 04:52:38;;;;;;;6.70;3.75;;;12.00;99.90;;;;;;5076924;28;20052;-62
2023/08/29 04:55:07;;;;;;;7.50;3.83;;;11.90;99.90;;;;;;5076790;28;20048;-62
2023/08/29 04:57:35;;;;;;;4.72;3.38;;;11.90;99.90;;;;;;5075751;28;20408;-62
2023/08/29 05:00:02;;;;;;;6.45;3.58;;;11.80;99.90;;;;;;5094244;28;20472;-62
2023/08/29 05:02:28;;;;;;;5.88;3.47;;;11.90;99.90;;;;;;5059592;28;20135;-62
2023/08/29 05:04:54;;;;;;;5.30;3.67;;;11.80;99.90;;;;;;5076137;28;20048;-61
2023/08/29 05:07:21;;;;;;;6.60;4.05;;;11.80;99.90;;;;;;5075998;28;20461;-63
2023/08/29 05:09:47;;;;;;;6.18;3.60;;;11.80;99.90;;;;;;5094036;28;20088;-62
2023/08/29 05:12:13;;;;;;;5.18;3.65;;;11.90;99.90;;;;;;5093450;28;20051;-62
2023/08/29 05:14:39;;;;;;;5.65;4.18;;;11.80;99.90;;;;;;5094212;28;20040;-61
2023/08/29 05:17:08;;;;;;;4.57;3.53;;;11.90;99.90;;;;;;5093698;28;20419;-61
2023/08/29 05:19:34;;;;;;;5.38;3.92;;;11.80;99.90;;;;;;5075416;28;20048;-62
2023/08/29 05:22:01;;;;;;;5.75;3.78;;;11.90;99.90;;;;;;5094056;28;20067;-62
2023/08/29 05:24:27;;;;;;;6.10;3.95;;;11.90;99.90;;;;;;5094084;28;20052;-62
2023/08/29 05:26:54;;;;;;;5.95;3.80;;;12.00;99.90;;;;;;5076755;28;20112;-62
2023/08/29 05:29:21;;;;;;;6.57;3.85;;;12.10;99.90;;;;;;5094340;28;20055;-62
2023/08/29 05:31:47;;;;;;;4.97;3.38;;;12.10;99.90;;;;;;5076042;28;20169;-61
2023/08/29 05:34:13;;;;;;;5.07;3.47;;;12.20;99.90;;;;;;5075835;28;20048;-62
2023/08/29 05:36:41;;;;;;;6.78;3.42;;;12.30;99.90;;;;;;5094081;28;20044;-62
2023/08/29 05:39:07;;;;;;;8.32;4.22;;;12.20;99.90;;;;;;5093617;28;20067;-63
2023/08/29 05:41:35;;;;;;;9.38;3.80;;;12.40;99.90;;;;;;5055270;28;20048;-61
2023/08/29 05:44:01;;;;;;;6.35;3.90;;;12.40;99.90;;;;;;5073471;28;20418;-63
2023/08/29 05:46:27;;;;;;;4.78;3.65;;;12.50;99.90;;;;;;5073539;28;20079;-63
2023/08/29 05:48:54;;;;;;;6.28;3.90;;;12.60;99.90;;;;;;5054950;28;20048;-63
2023/08/29 05:51:21;;;;;;;8.00;4.38;;;12.90;99.90;;;;;;5072012;28;20421;-63
2023/08/29 05:53:47;;;;;;;6.43;3.55;;;13.80;99.90;;;;;;5055517;28;20067;-63
2023/08/29 05:56:15;;;;;;;4.68;3.38;;;14.80;99.90;;;;;;5038749;28;20052;-63
2023/08/29 05:58:41;;;;;;;5.63;3.72;;;15.60;99.90;;;;;;5054770;28;20044;-63
2023/08/29 06:01:09;;;;;;;4.70;3.25;;;16.30;99.90;;;;;;5072160;28;20150;-64
2023/08/29 06:03:36;;;;;;;4.53;3.10;;;16.70;99.90;;;;;;5071484;28;20044;-63
2023/08/29 06:06:06;;;;;;;5.53;3.50;;;17.00;99.90;;;;;;5072005;28;20329;-62
2023/08/29 06:08:35;;;;;;;3.83;2.90;;;17.10;99.90;;;;;;5072609;28;20044;-62
2023/08/29 06:11:03;;;;;;;4.28;3.22;;;17.10;99.90;;;;;;5071989;28;20049;-63
2023/08/29 06:13:30;;;;;;;6.57;3.45;;;17.10;99.90;;;;;;5054702;28;20064;-60
2023/08/29 06:15:56;;;;;;;6.20;3.30;;;17.10;99.90;;;;;;5072405;28;20053;-63
2023/08/29 06:18:22;;;;;;;5.18;3.15;;;17.20;99.90;;;;;;5072603;28;20101;-62
2023/08/29 06:20:48;;;;;;;4.53;3.13;;;17.40;99.90;;;;;;5072522;28;20488;-62
2023/08/29 06:23:16;;;;;;;4.95;3.30;;;17.70;99.90;;;;;;5070334;28;20056;-62
2023/08/29 06:25:44;;;;;;;4.78;3.20;;;17.90;99.90;;;;;;5070710;28;20373;-63
2023/08/29 06:28:11;;;;;;;5.05;3.30;;;18.10;99.90;;;;;;5071000;28;20132;-63
2023/08/29 06:30:37;;;;;;;4.15;3.00;;;18.60;99.90;;;;;;5072310;28;20455;-63
2023/08/29 06:33:06;;;;;;;5.18;3.38;;;19.00;99.90;;;;;;5072419;28;20044;-63
2023/08/29 06:35:39;;;;;;;5.93;3.25;;;19.40;99.90;;;;;;5072019;28;20056;-63
2023/08/29 06:38:06;;;;;;;6.65;3.97;;;19.20;99.90;;;;;;5070831;28;20334;-63
2023/08/29 06:40:32;;;;;;;5.07;3.50;;;19.60;99.90;;;;;;5069553;28;20082;-63
2023/08/29 06:42:59;;;;;;;3.92;2.67;;;19.70;99.90;;;;;;5034061;28;20049;-63
2023/08/29 06:45:47;;;;;;;4.28;2.60;;;19.60;99.90;;;;;;5052327;28;20059;-62
2023/08/29 06:48:13;;;;;;;4.70;2.40;;;19.60;99.90;;;;;;5051734;28;20432;-63
2023/08/29 06:50:41;;;;;;;4.55;2.50;;;19.70;99.90;;;;;;5052160;28;20115;-62
2023/08/29 06:53:07;;;;;;;3.95;2.50;;;19.90;99.90;;;;;;5034906;28;20244;-62
2023/08/29 06:55:35;;;;;;;3.30;2.10;;;20.10;99.90;;;;;;5034462;28;20052;-62
2023/08/29 06:58:04;;;;;;;5.25;3.20;;;20.20;99.90;;;;;;5051846;28;20045;-63
2023/08/29 07:00:34;;;;;;;5.07;2.63;;;20.40;99.90;;;;;;5034723;28;20126;-63
2023/08/29 07:03:01;;;;;;;4.72;2.97;;;20.20;99.90;;;;;;5051445;28;20053;-63
2023/08/29 07:05:27;;;;;;;3.72;2.92;;;20.60;99.90;;;;;;5052223;28;20094;-63
2023/08/29 07:07:53;;;;;;;4.15;2.67;;;20.70;99.90;;;;;;5051786;28;20450;-62
2023/08/29 07:10:19;;;;;;;4.82;3.30;;;20.70;99.90;;;;;;5052080;28;20408;-62
2023/08/29 07:12:48;;;;;;;5.28;2.83;;;20.90;99.90;;;;;;5051706;28;20049;-60
2023/08/29 07:15:14;;;;;;;7.30;3.00;;;20.80;99.90;;;;;;5051731;28;20520;-60
2023/08/29 07:17:41;;;;;;;3.95;3.15;;;20.70;99.90;;;;;;5051317;28;20049;-61
2023/08/29 07:20:08;;;;;;;4.47;3.10;;;20.30;99.90;;;;;;5051814;28;20424;-60
2023/08/29 07:22:37;;;;;;;4.40;3.00;;;20.00;99.90;;;;;;5033853;28;20040;-61
2023/08/29 07:25:05;;;;;;;3.70;2.90;;;19.80;99.90;;;;;;5052264;28;20045;-61
2023/08/29 07:27:31;;;;;;;3.83;2.80;;;19.60;99.90;;;;;;5051529;28;20059;-62
2023/08/29 07:30:00;;;;;;;4.90;3.00;;;19.30;99.90;;;;;;5034454;28;20060;-62
2023/08/29 07:32:27;;;;;;;3.95;2.58;;;19.10;99.90;;;;;;5051111;28;20441;-62
2023/08/29 07:34:55;;;;;;;3.65;2.75;;;19.00;99.90;;;;;;5052623;28;20110;-62
2023/08/29 07:37:21;;;;;;;4.05;2.92;;;19.00;99.90;;;;;;5055499;28;20049;-61
2023/08/29 07:39:48;;;;;;;3.70;2.67;;;18.80;99.90;;;;;;5037860;28;20064;-61
2023/08/29 07:42:16;;;;;;;5.40;4.10;;;18.90;99.90;;;;;;5085309;28;20059;-61
2023/08/29 07:44:43;;;;;;;6.38;3.95;;;18.80;99.90;;;;;;5078061;28;20048;-61
2023/08/29 07:47:09;;;;;;;6.60;3.92;;;18.90;99.90;;;;;;5095753;28;20051;-61
2023/08/29 07:49:36;;;;;;;6.65;4.43;;;18.80;99.90;;;;;;5095827;28;20356;-62
2023/08/29 07:52:02;;;;;;;5.53;3.35;;;18.80;99.90;;;;;;5077575;28;20367;-61
2023/08/29 07:54:29;;;;;;;5.22;3.45;;;19.00;99.90;;;;;;5095780;28;20052;-60
2023/08/29 07:56:56;;;;;;;4.95;3.53;;;19.00;99.90;;;;;;5077734;28;20372;-61
2023/08/29 07:59:23;;;;;;;4.72;3.30;;;18.90;99.90;;;;;;5095211;28;20439;-62
2023/08/29 08:01:52;;;;;;;6.35;3.33;;;18.90;99.90;;;;;;5095550;28;20058;-63
2023/08/29 08:04:18;;;;;;;4.82;3.20;;;18.90;99.90;;;;;;5078175;28;20055;-62
2023/08/29 08:06:44;;;;;;;5.82;3.10;;;18.90;99.90;;;;;;5095892;28;20093;-61
2023/08/29 08:09:11;;;;;;;4.20;2.90;;;18.90;99.90;;;;;;5095259;28;20448;-61
2023/08/29 08:11:37;;;;;;;4.60;2.78;;;18.90;99.90;;;;;;5095933;28;20040;-61
2023/08/29 08:14:04;;;;;;;4.50;2.40;;;19.00;99.90;;;;;;5077665;28;20054;-62
2023/08/29 08:16:48;;;;;;;3.58;2.55;;;19.00;99.90;;;;;;5078001;28;20471;-62
2023/08/29 08:19:15;;;;;;;3.42;2.38;;;19.00;99.90;;;;;;5095553;28;20073;-62
2023/08/29 08:21:41;;;;;;;3.65;2.40;;;19.20;99.90;;;;;;5095551;28;20401;-63
2023/08/29 08:24:08;;;;;;;3.30;2.08;;;19.30;99.90;;;;;;5095442;28;20044;-61
2023/08/29 08:26:34;;;;;;;2.92;2.50;;;19.30;99.90;;;;;;5095098;28;20044;-61
2023/08/29 08:29:01;;;;;;;2.90;2.40;;;19.40;99.90;;;;;;5095021;28;20051;-62
2023/08/29 08:31:28;;;;;;;3.50;2.42;;;19.50;99.90;;;;;;5094809;28;20040;-61
2023/08/29 08:33:56;;;;;;;4.40;2.70;;;19.60;99.90;;;;;;5060394;28;20059;-61
2023/08/29 08:36:22;;;;;;;4.15;2.78;;;19.70;99.90;;;;;;5094590;28;20436;-61
2023/08/29 08:38:48;;;;;;;4.10;2.95;;;19.80;99.90;;;;;;5094630;28;20051;-61
2023/08/29 08:41:17;;;;;;;5.20;2.65;;;19.80;99.90;;;;;;5094253;28;20056;-62
2023/08/29 08:43:50;;;;;;;6.05;2.83;;;20.00;99.90;;;;;;5076434;28;20055;-62
2023/08/29 08:46:18;;;;;;;5.60;2.90;;;20.00;99.90;;;;;;5093878;28;20496;-61
2023/08/29 08:48:44;;;;;;;4.28;2.97;;;20.00;99.90;;;;;;5094114;28;20057;-61
2023/08/29 08:51:12;;;;;;;5.55;3.03;;;20.20;99.90;;;;;;5076549;28;20052;-62
2023/08/29 08:53:40;;;;;;;5.03;2.63;;;20.10;99.90;;;;;;5094514;28;20063;-61
2023/08/29 08:56:08;;;;;;;4.13;2.80;;;20.10;99.90;;;;;;5094476;28;20052;-61
2023/08/29 08:58:36;;;;;;;6.05;3.10;;;19.70;99.90;;;;;;5059675;28;20067;-62
2023/08/29 09:01:07;;;;;;;4.75;2.80;;;19.70;99.90;;;;;;5076284;28;20448;-62
2023/08/29 09:03:35;;;;;;;5.20;2.92;;;19.70;99.90;;;;;;5094266;28;20055;-62
2023/08/29 09:06:01;;;;;;;3.75;2.65;;;19.60;99.90;;;;;;5076225;28;20048;-61
2023/08/29 09:08:31;;;;;;;4.88;3.00;;;19.50;99.90;;;;;;5076281;28;20067;-62
2023/08/29 09:11:01;;;;;;;3.88;3.00;;;19.60;99.90;;;;;;5076279;28;20047;-61
2023/08/29 09:13:27;;;;;;;4.57;2.70;;;19.60;99.90;;;;;;5094122;28;20113;-62
2023/08/29 09:15:55;;;;;;;3.80;2.60;;;19.70;99.90;;;;;;5076356;28;20052;-61
2023/08/29 09:18:26;;;;;;;4.15;2.97;;;19.80;99.90;;;;;;5094006;28;20381;-61
2023/08/29 09:20:53;;;;;;;5.45;3.33;;;19.80;99.90;;;;;;5094222;28;20445;-61
2023/08/29 09:23:21;;;;;;;4.85;2.83;;;19.70;99.90;;;;;;5093960;28;20054;-61
2023/08/29 09:25:58;;;;;;;5.68;2.80;;;19.50;99.90;;;;;;5093795;28;20048;-61
2023/08/29 09:28:28;;;;;;;;;;;19.60;99.90;;;;;;5076568;28;20407;-62
2023/08/29 09:31:05;;;;;;;4.85;2.78;;;19.60;99.90;;;;;;5075594;28;19927;-61
2023/08/29 09:33:32;;;;;;;4.95;2.70;;;19.70;99.90;;;;;;5075731;28;20055;-61
2023/08/29 09:36:04;;;;;;;3.92;2.60;;;19.70;99.90;;;;;;5093336;28;20134;-62
2023/08/29 09:38:33;;;;;;;4.35;2.95;;;19.80;99.90;;;;;;5058628;28;20052;-61
2023/08/29 09:41:01;;;;;;;4.47;2.80;;;19.80;99.90;;;;;;5093155;28;20055;-62
2023/08/29 09:43:28;;;;;;;4.55;2.78;;;19.70;99.90;;;;;;5093744;28;20097;-62
2023/08/29 09:45:56;;;;;;;4.25;2.40;;;19.80;99.90;;;;;;5075630;28;20055;-61
2023/08/29 09:48:22;;;;;;;4.22;2.85;;;19.70;99.90;;;;;;5093256;28;20397;-61
2023/08/29 09:50:50;;;;;;;5.13;2.40;;;19.90;99.90;;;;;;5075393;28;20048;-61
2023/08/29 09:53:18;;;;;;;4.43;2.70;;;20.00;99.90;;;;;;5073047;28;20048;-61
2023/08/29 09:55:59;;;;;;;4.78;2.65;;;19.90;99.90;;;;;;5055324;28;20102;-61
2023/08/29 09:58:29;;;;;;;3.92;2.75;;;19.90;99.90;;;;;;5054325;28;20059;-61
2023/08/29 10:00:57;;;;;;;3.22;2.33;;;20.10;99.90;;;;;;5057520;28;20045;-62
2023/08/29 10:03:24;;;;;;;3.60;2.60;;;20.30;99.90;;;;;;5093103;28;20109;-60
2023/08/29 10:05:51;;;;;;;3.25;2.03;;;20.30;99.90;;;;;;5092953;28;20449;-60
2023/08/29 10:08:51;;;;;;;3.92;2.40;;;20.40;99.90;;;;;;5074883;28;20379;-61
2023/08/29 10:11:19;;;;;;;4.22;2.10;;;20.60;99.90;;;;;;5092938;28;20036;-61
2023/08/29 10:13:47;;;;;;;3.58;1.92;;;20.60;99.90;;;;;;5092839;28;20068;-62
2023/08/29 10:16:15;;;;;;;3.25;1.60;;;20.50;99.90;;;;;;5074836;28;20045;-62
2023/08/29 10:18:44;;;;;;;3.33;1.58;;;20.30;99.90;;;;;;5092912;28;20044;-62
2023/08/29 10:21:12;;;;;;;4.18;1.60;;;20.40;99.90;;;;;;5093193;28;20044;-61
2023/08/29 10:23:39;;;;;;;3.13;1.60;;;20.50;99.90;;;;;;5093055;28;20062;-61
2023/08/29 10:26:06;;;;;;;2.95;1.70;;;20.40;99.90;;;;;;5074769;28;20443;-62
2023/08/29 10:28:33;;;;;;;2.63;1.52;;;20.30;99.90;;;;;;5092924;28;20066;-62
2023/08/29 10:31:02;;;;;;;2.50;1.52;;;20.30;99.90;;;;;;5074727;28;20364;-62
2023/08/29 10:33:28;;;;;;;4.07;2.20;;;20.40;99.90;;;;;;5092766;28;20052;-62
2023/08/29 10:35:54;;;;;;;3.72;1.90;;;20.40;99.90;;;;;;5092934;28;20044;-61
2023/08/29 10:38:21;;;;;;;2.55;2.20;;;20.30;99.90;;;;;;5092195;28;20411;-61
2023/08/29 10:41:02;;;;;;;3.72;2.40;;;20.30;99.90;;;;;;5074642;28;20144;-62
2023/08/29 10:43:29;;;;;;;4.88;2.60;;;20.20;99.90;;;;;;5054817;28;20052;-61
2023/08/29 10:46:15;;;;;;;3.83;3.00;;;20.30;99.90;;;;;;5054369;28;20100;-61
2023/08/29 10:48:44;;;;;;;2.47;1.90;;;20.40;99.90;;;;;;5054903;28;20461;-62
2023/08/29 10:51:12;;;;;;;3.97;2.63;;;20.70;99.90;;;;;;5057723;28;20340;-62
2023/08/29 10:53:45;;;;;;;3.17;2.00;;;20.80;99.90;;;;;;5092754;28;20052;-63
2023/08/29 10:56:13;;;;;;;3.28;2.72;;;20.80;99.90;;;;;;5074203;28;20044;-62
2023/08/29 10:58:40;;;;;;;4.45;3.25;;;20.80;99.90;;;;;;5057498;28;20052;-62
2023/08/29 11:01:33;;;;;;;4.22;3.78;;;21.00;99.90;;;;;;5092169;28;20056;-61
2023/08/29 11:04:10;;;;;;;4.10;3.70;;;21.00;99.90;;;;;;5092074;28;20113;-62
2023/08/29 11:06:56;;;;;;;6.45;4.32;;;21.30;99.90;;;;;;5075690;28;20368;-61
2023/08/29 11:09:24;;;;;;;5.55;3.42;;;21.40;99.90;;;;;;5057568;28;20059;-61
2023/08/29 11:12:09;;;;;;;3.65;2.67;;;21.60;99.90;;;;;;5096099;28;20069;-61
2023/08/29 11:14:53;;;;;;;4.25;2.70;;;21.70;99.90;;;;;;5096091;28;20383;-62
2023/08/29 11:17:24;;;;;;;3.67;2.10;;;21.80;99.90;;;;;;5078061;28;20060;-62
2023/08/29 11:20:02;;;;;;;2.97;2.05;;;21.80;99.90;;;;;;5096656;28;20069;-61
2023/08/29 11:22:29;;;;;;;3.60;2.15;;;21.90;99.90;;;;;;5096255;28;20062;-61
2023/08/29 11:24:57;;;;;;;3.90;2.40;;;21.80;99.90;;;;;;5078163;28;20048;-62
2023/08/29 11:27:24;;;;;;;3.40;2.00;;;21.70;99.90;;;;;;5096193;28;20442;-61
2023/08/29 11:29:55;;;;;;;2.70;2.22;;;21.70;99.90;;;;;;5096298;28;20040;-61
2023/08/29 11:32:21;;;;;;;3.50;2.90;;;21.80;99.90;;;;;;5077751;28;20473;-62
2023/08/29 11:34:52;;;;;;;3.13;2.63;;;21.90;99.90;;;;;;5077931;28;20452;-62
2023/08/29 11:37:18;;;;;;;4.65;2.97;;;21.90;99.90;;;;;;5095774;28;20062;-62
2023/08/29 11:39:55;;;;;;;3.85;3.10;;;21.90;99.90;;;;;;5078034;28;20059;-62
2023/08/29 11:42:27;;;;;;;4.22;3.30;;;21.80;99.90;;;;;;5077576;28;20055;-62
2023/08/29 11:44:54;;;;;;;3.97;3.25;;;21.90;99.90;;;;;;5096069;28;20040;-62
2023/08/29 11:47:23;;;;;;;5.70;2.83;;;21.80;99.90;;;;;;5077859;28;20105;-61
2023/08/29 11:49:51;;;;;;;4.10;2.60;;;21.70;99.90;;;;;;5095925;28;20044;-61
2023/08/29 11:52:18;;;;;;;3.78;2.22;;;21.70;99.90;;;;;;5077495;28;20048;-62
2023/08/29 11:54:50;;;;;;;3.05;2.28;;;21.70;99.90;;;;;;5078123;28;20052;-63
2023/08/29 11:57:18;;;;;;;3.53;2.70;;;21.70;99.90;;;;;;5077550;28;20056;-62
2023/08/29 11:59:46;;;;;;;4.03;3.15;;;21.60;99.90;;;;;;5096063;28;20044;-61
2023/08/29 12:02:16;;;;;;;3.85;3.13;;;21.60;99.90;;;;;;5095572;28;20090;-61
2023/08/29 12:04:44;;;;;;;3.55;2.78;;;21.50;99.90;;;;;;5095479;28;20075;-61
2023/08/29 12:07:12;;;;;;;4.88;2.80;;;21.50;99.90;;;;;;5077741;28;20040;-62
2023/08/29 12:09:41;;;;;;;5.25;3.20;;;21.40;99.90;;;;;;5095645;28;20129;-62
2023/08/29 12:12:08;;;;;;;4.55;2.97;;;21.30;99.90;;;;;;5077729;28;20058;-60
2023/08/29 12:14:54;;;;;;;6.50;3.05;;;21.20;99.90;;;;;;5095535;28;20055;-61
2023/08/29 12:17:22;;;;;;;4.55;3.10;;;21.00;99.90;;;;;;5095137;28;20464;-61
2023/08/29 12:19:49;;;;;;;4.32;3.33;;;21.00;99.90;;;;;;5095343;28;20048;-61
2023/08/29 12:22:19;;;;;;;3.38;2.70;;;21.00;99.90;;;;;;5075728;28;20052;-61
2023/08/29 12:24:54;;;;;;;3.63;2.90;;;20.90;99.90;;;;;;5076812;28;20337;-60
2023/08/29 12:27:22;;;;;;;4.13;2.20;;;20.80;99.90;;;;;;5094762;28;20052;-61
2023/08/29 12:29:48;;;;;;;4.97;2.75;;;20.90;99.90;;;;;;5077426;28;20051;-61
2023/08/29 12:32:16;;;;;;;3.38;2.45;;;20.70;99.90;;;;;;5094647;28;20054;-61
2023/08/29 12:34:44;;;;;;;3.75;2.42;;;20.80;99.90;;;;;;5076800;28;20388;-61
2023/08/29 12:37:12;;;;;;;3.15;2.50;;;20.80;99.90;;;;;;5094580;28;20109;-61
2023/08/29 12:39:39;;;;;;;2.90;2.10;;;20.70;99.90;;;;;;5077163;28;20063;-61
2023/08/29 12:42:05;;;;;;;3.35;2.17;;;20.70;99.90;;;;;;5056428;28;20052;-61
2023/08/29 12:44:32;;;;;;;4.60;2.67;;;20.60;99.90;;;;;;5074555;28;20056;-61
2023/08/29 12:47:00;;;;;;;4.28;3.10;;;20.60;99.90;;;;;;5039515;28;20063;-61
2023/08/29 12:49:26;;;;;;;4.95;3.55;;;20.70;99.90;;;;;;5074411;28;20408;-61
2023/08/29 12:51:54;;;;;;;5.47;3.80;;;20.70;99.90;;;;;;5055469;28;20044;-61
2023/08/29 12:54:20;;;;;;;4.70;3.45;;;20.70;99.90;;;;;;5056639;28;20380;-62